createdAt,value
2023-11-18T00:00:55.665Z,0
2023-11-18T00:02:04.890Z,0
2023-11-18T00:03:14.024Z,0
2023-11-18T00:04:23.237Z,0
2023-11-18T00:05:32.315Z,0
2023-11-18T00:06:41.623Z,0
2023-11-18T00:07:50.668Z,0
2023-11-18T00:08:59.930Z,0
2023-11-18T00:10:08.176Z,0
2023-11-18T00:11:17.232Z,0
2023-11-18T00:12:26.471Z,0
2023-11-18T00:13:35.681Z,0
2023-11-18T00:14:44.723Z,0
2023-11-18T00:15:53.972Z,0
2023-11-18T00:17:02.109Z,0
2023-11-18T00:18:10.325Z,0
2023-11-18T00:19:19.450Z,0
2023-11-18T00:20:28.693Z,0
2023-11-18T00:21:37.834Z,0
2023-11-18T00:22:46.986Z,0
2023-11-18T00:23:56.210Z,0
2023-11-18T00:25:05.312Z,0
2023-11-18T00:26:14.535Z,0
2023-11-18T00:27:23.662Z,0
2023-11-18T00:28:32.835Z,0
2023-11-18T00:29:42.022Z,0
2023-11-18T00:30:51.209Z,0
2023-11-18T00:32:00.356Z,0
2023-11-18T00:33:09.618Z,0
2023-11-18T00:34:17.825Z,0
2023-11-18T00:35:26.912Z,0
2023-11-18T00:36:36.147Z,0
2023-11-18T00:37:45.354Z,0
2023-11-18T00:38:54.431Z,0
2023-11-18T00:40:02.662Z,0
2023-11-18T00:41:12.080Z,0
2023-11-18T00:42:19.983Z,0
2023-11-18T00:43:28.200Z,0
2023-11-18T00:45:46.578Z,0
2023-11-18T00:46:55.717Z,0
2023-11-18T00:48:04.925Z,0
2023-11-18T00:49:14.034Z,0
2023-11-18T00:50:23.218Z,0
2023-11-18T00:51:32.515Z,0
2023-11-18T00:52:41.553Z,0
2023-11-18T00:53:50.833Z,0
2023-11-18T00:54:59.898Z,0
2023-11-18T00:56:09.439Z,0
2023-11-18T00:57:18.246Z,0
2023-11-18T00:58:26.656Z,0
2023-11-18T00:59:35.671Z,0
2023-11-18T01:00:44.889Z,0
2023-11-18T01:01:53.941Z,0
2023-11-18T01:03:03.214Z,0
2023-11-18T01:04:12.353Z,0
2023-11-18T01:06:30.696Z,0
2023-11-18T01:07:38.934Z,0
2023-11-18T01:08:47.066Z,0
2023-11-18T01:09:56.371Z,0
2023-11-18T01:11:04.499Z,0
2023-11-18T01:12:13.822Z,0
2023-11-18T01:13:22.747Z,0
2023-11-18T01:14:32.017Z,0
2023-11-18T01:16:50.279Z,0
2023-11-18T01:19:08.608Z,0
2023-11-18T01:20:17.820Z,0
2023-11-18T01:22:36.164Z,0
2023-11-18T01:23:44.367Z,0
2023-11-18T01:24:52.508Z,0
2023-11-18T01:26:01.694Z,0
2023-11-18T01:27:10.879Z,0
2023-11-18T01:28:20.023Z,0
2023-11-18T01:29:29.201Z,0
2023-11-18T01:30:38.381Z,0
2023-11-18T01:31:47.539Z,0
2023-11-18T01:32:56.739Z,0
2023-11-18T01:34:05.928Z,0
2023-11-18T01:35:14.165Z,0
2023-11-18T01:36:22.351Z,0
2023-11-18T01:37:31.449Z,0
2023-11-18T01:38:40.622Z,0
2023-11-18T01:40:58.970Z,0
2023-11-18T01:42:08.143Z,0
2023-11-18T01:43:17.347Z,0
2023-11-18T01:44:26.492Z,0
2023-11-18T01:45:35.846Z,0
2023-11-18T01:46:44.868Z,0
2023-11-18T01:47:54.063Z,0
2023-11-18T01:49:03.202Z,0
2023-11-18T01:50:12.377Z,0
2023-11-18T01:51:20.534Z,0
2023-11-18T01:52:29.727Z,0
2023-11-18T01:53:38.884Z,0
2023-11-18T01:54:48.061Z,0
2023-11-18T01:55:57.237Z,0
2023-11-18T01:57:06.432Z,0
2023-11-18T01:58:15.579Z,0
2023-11-18T01:59:23.844Z,0
2023-11-18T02:00:31.999Z,0
2023-11-18T02:01:41.141Z,0
2023-11-18T02:02:50.323Z,0
2023-11-18T02:03:59.492Z,0
2023-11-18T02:05:08.726Z,0
2023-11-18T02:06:17.989Z,0
2023-11-18T02:07:27.112Z,0
2023-11-18T02:08:36.195Z,0
2023-11-18T02:10:54.561Z,0
2023-11-18T02:12:03.807Z,0
2023-11-18T02:13:12.875Z,0
2023-11-18T02:15:31.252Z,0
2023-11-18T02:16:39.451Z,0
2023-11-18T02:17:47.612Z,0
2023-11-18T02:18:56.780Z,0
2023-11-18T02:20:05.957Z,0
2023-11-18T02:21:15.151Z,0
2023-11-18T02:22:24.303Z,0
2023-11-18T02:23:33.504Z,0
2023-11-18T02:24:42.672Z,0
2023-11-18T02:25:51.864Z,0
2023-11-18T02:27:01.003Z,0
2023-11-18T02:28:09.167Z,0
2023-11-18T02:29:18.350Z,0
2023-11-18T02:30:26.538Z,0
2023-11-18T02:31:35.741Z,0
2023-11-18T02:32:44.889Z,0
2023-11-18T02:33:54.078Z,0
2023-11-18T02:36:12.427Z,0
2023-11-18T02:37:21.665Z,0
2023-11-18T02:38:30.797Z,0
2023-11-18T02:39:39.952Z,0
2023-11-18T02:40:49.104Z,0
2023-11-18T02:41:58.376Z,0
2023-11-18T02:43:07.444Z,0
2023-11-18T02:44:16.614Z,0
2023-11-18T02:45:24.833Z,0
2023-11-18T02:46:33.984Z,0
2023-11-18T02:47:43.154Z,0
2023-11-18T02:48:52.357Z,0
2023-11-18T02:50:01.545Z,0
2023-11-18T02:51:10.690Z,0
2023-11-18T02:52:18.904Z,0
2023-11-18T02:53:27.055Z,0
2023-11-18T02:54:36.269Z,0
2023-11-18T02:56:54.614Z,0
2023-11-18T02:58:03.758Z,0
2023-11-18T02:59:12.953Z,0
2023-11-18T03:00:22.112Z,0
2023-11-18T03:01:31.302Z,0
2023-11-18T03:02:40.464Z,0
2023-11-18T03:03:49.630Z,0
2023-11-18T03:04:58.802Z,0
2023-11-18T03:07:17.160Z,0
2023-11-18T03:08:25.356Z,0
2023-11-18T03:09:33.616Z,0
2023-11-18T03:10:42.721Z,0
2023-11-18T03:11:52.007Z,0
2023-11-18T03:13:01.061Z,0
2023-11-18T03:14:10.255Z,0
2023-11-18T03:15:19.425Z,0
2023-11-18T03:16:28.641Z,0
2023-11-18T03:17:37.764Z,0
2023-11-18T03:18:46.939Z,0
2023-11-18T03:19:55.122Z,0
2023-11-18T03:21:03.313Z,0
2023-11-18T03:23:20.690Z,0
2023-11-18T03:24:29.855Z,0
2023-11-18T03:25:39.028Z,0
2023-11-18T03:26:48.179Z,0
2023-11-18T03:27:57.349Z,0
2023-11-18T03:29:06.546Z,0
2023-11-18T03:30:15.767Z,0
2023-11-18T03:31:24.868Z,0
2023-11-18T03:32:34.039Z,0
2023-11-18T03:33:43.227Z,0
2023-11-18T03:34:52.408Z,0
2023-11-18T03:36:01.571Z,0
2023-11-18T03:37:09.965Z,0
2023-11-18T03:38:18.936Z,0
2023-11-18T03:39:28.096Z,0
2023-11-18T03:40:37.284Z,0
2023-11-18T03:41:46.457Z,0
2023-11-18T03:44:04.861Z,0
2023-11-18T03:45:14.093Z,0
2023-11-18T03:46:22.200Z,0
2023-11-18T03:47:30.352Z,0
2023-11-18T03:48:39.566Z,0
2023-11-18T03:49:48.696Z,0
2023-11-18T03:50:57.881Z,0
2023-11-18T03:52:07.107Z,0
2023-11-18T03:53:16.234Z,0
2023-11-18T03:54:25.394Z,0
2023-11-18T03:55:34.560Z,0
2023-11-18T03:56:43.770Z,0
2023-11-18T03:57:52.970Z,0
2023-11-18T03:59:02.110Z,0
2023-11-18T04:00:11.265Z,0
2023-11-18T04:01:20.425Z,0
2023-11-18T04:02:28.624Z,0
2023-11-18T04:03:37.807Z,0
2023-11-18T04:04:46.982Z,0
2023-11-18T04:05:56.136Z,0
2023-11-18T04:07:05.319Z,0
2023-11-18T04:08:14.488Z,0
2023-11-18T04:09:23.660Z,0
2023-11-18T04:10:31.973Z,0
2023-11-18T04:11:40.068Z,0
2023-11-18T04:13:57.407Z,0
2023-11-18T04:15:06.653Z,0
2023-11-18T04:16:15.764Z,0
2023-11-18T04:17:24.940Z,0
2023-11-18T04:18:34.102Z,0
2023-11-18T04:19:43.306Z,0
2023-11-18T04:20:52.477Z,0
2023-11-18T04:22:01.724Z,0
2023-11-18T04:23:10.808Z,0
2023-11-18T04:24:20.086Z,0
2023-11-18T04:25:29.164Z,0
2023-11-18T04:26:38.315Z,0
2023-11-18T04:27:46.527Z,0
2023-11-18T04:28:55.685Z,0
2023-11-18T04:30:04.872Z,0
2023-11-18T04:31:13.068Z,0
2023-11-18T04:32:22.222Z,0
2023-11-18T04:33:31.452Z,0
2023-11-18T04:34:40.578Z,0
2023-11-18T04:35:49.746Z,0
2023-11-18T04:36:57.938Z,0
2023-11-18T04:38:06.144Z,0
2023-11-18T04:39:15.312Z,0
2023-11-18T04:40:24.473Z,0
2023-11-18T04:41:33.659Z,0
2023-11-18T04:42:42.824Z,0
2023-11-18T04:43:51.983Z,0
2023-11-18T04:45:01.171Z,0
2023-11-18T04:46:10.498Z,0
2023-11-18T04:47:19.545Z,0
2023-11-18T04:48:28.692Z,0
2023-11-18T04:49:37.867Z,0
2023-11-18T04:50:47.051Z,0
2023-11-18T04:51:56.347Z,0
2023-11-18T04:53:04.419Z,0
2023-11-18T04:54:13.575Z,0
2023-11-18T04:55:22.763Z,0
2023-11-18T04:56:31.939Z,0
2023-11-18T04:57:41.127Z,0
2023-11-18T04:58:50.278Z,0
2023-11-18T05:01:07.609Z,0
2023-11-18T05:02:15.845Z,0
2023-11-18T05:03:24.025Z,0
2023-11-18T05:04:33.211Z,0
2023-11-18T05:05:42.361Z,0
2023-11-18T05:06:51.557Z,0
2023-11-18T05:08:00.733Z,0
2023-11-18T05:09:10.031Z,0
2023-11-18T05:10:19.066Z,0
2023-11-18T05:11:28.300Z,0
2023-11-18T05:12:37.399Z,0
2023-11-18T05:13:46.589Z,0
2023-11-18T05:14:55.768Z,0
2023-11-18T05:16:04.928Z,0
2023-11-18T05:17:14.111Z,0
2023-11-18T05:18:23.325Z,0
2023-11-18T05:19:31.545Z,0
2023-11-18T05:20:40.656Z,0
2023-11-18T05:21:49.807Z,0
2023-11-18T05:22:58.976Z,0
2023-11-18T05:24:08.173Z,0
2023-11-18T05:25:17.319Z,0
2023-11-18T05:27:35.676Z,0
2023-11-18T05:28:44.841Z,0
2023-11-18T05:29:54.004Z,0
2023-11-18T05:31:03.190Z,0
2023-11-18T05:32:12.380Z,0
2023-11-18T05:33:21.535Z,0
2023-11-18T05:34:29.743Z,0
2023-11-18T05:35:38.904Z,0
2023-11-18T05:36:48.070Z,0
2023-11-18T05:37:57.242Z,0
2023-11-18T05:39:06.452Z,0
2023-11-18T05:40:15.601Z,0
2023-11-18T05:41:24.768Z,0
2023-11-18T05:43:43.119Z,0
2023-11-18T05:44:52.343Z,0
2023-11-18T05:46:01.463Z,0
2023-11-18T05:47:10.719Z,0
2023-11-18T05:48:19.811Z,0
2023-11-18T05:49:27.998Z,0
2023-11-18T05:50:37.215Z,0
2023-11-18T05:51:46.334Z,0
2023-11-18T05:52:55.541Z,0
2023-11-18T05:54:04.694Z,0
2023-11-18T05:55:13.867Z,0
2023-11-18T05:56:23.068Z,0
2023-11-18T05:58:41.417Z,0
2023-11-18T05:59:50.555Z,0
2023-11-18T06:00:59.742Z,0
2023-11-18T06:02:09.011Z,0
2023-11-18T06:03:18.068Z,0
2023-11-18T06:04:26.272Z,0
2023-11-18T06:05:35.441Z,0
2023-11-18T06:06:44.629Z,0
2023-11-18T06:09:02.968Z,3
2023-11-18T06:10:12.121Z,0
2023-11-18T06:11:21.361Z,0
2023-11-18T06:12:30.482Z,0
2023-11-18T06:14:48.847Z,0
2023-11-18T06:15:57.037Z,3
2023-11-18T06:17:05.208Z,3
2023-11-18T06:18:14.386Z,3
2023-11-18T06:19:23.548Z,4
2023-11-18T06:21:42.020Z,0
2023-11-18T06:22:51.135Z,4
2023-11-18T06:24:00.258Z,4
2023-11-18T06:25:09.567Z,1
2023-11-18T06:26:18.591Z,1
2023-11-18T06:27:27.796Z,1
2023-11-18T06:28:36.938Z,1
2023-11-18T06:29:46.118Z,3
2023-11-18T06:30:55.293Z,3
2023-11-18T06:32:03.466Z,6
2023-11-18T06:33:12.642Z,6
2023-11-18T06:34:21.838Z,10
2023-11-18T06:35:31.006Z,15
2023-11-18T06:37:49.349Z,8
2023-11-18T06:38:57.687Z,11
2023-11-18T06:40:05.739Z,13
2023-11-18T06:41:13.950Z,18
2023-11-18T06:42:23.110Z,23
2023-11-18T06:43:32.289Z,27
2023-11-18T06:44:41.476Z,33
2023-11-18T06:45:50.643Z,37
2023-11-18T06:46:59.790Z,42
2023-11-18T06:48:08.970Z,48
2023-11-18T06:49:18.269Z,58
2023-11-18T06:50:27.315Z,68
2023-11-18T06:51:35.565Z,81
2023-11-18T06:52:44.686Z,114
2023-11-18T06:53:52.889Z,140
2023-11-18T06:55:02.026Z,140
2023-11-18T06:56:11.224Z,166
2023-11-18T06:58:29.579Z,184
2023-11-18T06:59:38.837Z,194
2023-11-18T07:00:47.912Z,216
2023-11-18T07:01:57.179Z,234
2023-11-18T07:03:06.261Z,242
2023-11-18T07:05:24.625Z,285
2023-11-18T07:06:32.796Z,294
2023-11-18T07:07:42.002Z,312
2023-11-18T07:08:50.264Z,322
2023-11-18T07:11:08.514Z,325
2023-11-18T07:12:17.681Z,356
2023-11-18T07:13:26.852Z,366
2023-11-18T07:14:36.033Z,371
2023-11-18T07:15:45.209Z,381
2023-11-18T07:16:54.361Z,392
2023-11-18T07:19:12.757Z,431
2023-11-18T07:20:21.914Z,462
2023-11-18T07:21:31.062Z,486
2023-11-18T07:23:49.432Z,561
2023-11-18T07:24:57.605Z,588
2023-11-18T07:26:06.790Z,586
2023-11-18T07:27:15.954Z,610
2023-11-18T07:28:25.138Z,647
2023-11-18T07:29:34.310Z,681
2023-11-18T07:30:43.476Z,685
2023-11-18T07:31:52.658Z,691
2023-11-18T07:33:01.839Z,711
2023-11-18T07:35:20.173Z,792
2023-11-18T07:36:29.336Z,840
2023-11-18T07:37:38.512Z,952
2023-11-18T07:38:47.706Z,1038
2023-11-18T07:39:55.901Z,1103
2023-11-18T07:41:05.066Z,1188
2023-11-18T07:42:14.228Z,1273
2023-11-18T07:43:23.400Z,1326
2023-11-18T07:44:32.631Z,1384
2023-11-18T07:45:41.784Z,1377
2023-11-18T07:46:50.926Z,1507
2023-11-18T07:47:59.140Z,1574
2023-11-18T07:49:07.317Z,1576
2023-11-18T07:50:16.484Z,1641
2023-11-18T07:51:25.678Z,1615
2023-11-18T07:52:34.837Z,1604
2023-11-18T07:53:43.978Z,1629
2023-11-18T07:54:53.159Z,1660
2023-11-18T07:56:02.337Z,1710
2023-11-18T07:57:11.506Z,1757
2023-11-18T07:58:20.667Z,1849
2023-11-18T07:59:28.883Z,1919
2023-11-18T08:00:37.071Z,1962
2023-11-18T08:01:46.226Z,1990
2023-11-18T08:02:55.426Z,2024
2023-11-18T08:04:04.583Z,2036
2023-11-18T08:05:13.755Z,2075
2023-11-18T08:06:22.938Z,2125
2023-11-18T08:07:32.096Z,2140
2023-11-18T08:08:41.276Z,2285
2023-11-18T08:10:59.605Z,2443
2023-11-18T08:12:08.781Z,2498
2023-11-18T08:13:17.994Z,2506
2023-11-18T08:14:27.139Z,2516
2023-11-18T08:15:35.344Z,2466
2023-11-18T08:16:44.562Z,2104
2023-11-18T08:17:53.682Z,2816
2023-11-18T08:19:02.854Z,3143
2023-11-18T08:20:12.033Z,2692
2023-11-18T08:21:21.235Z,2576
2023-11-18T08:22:29.401Z,2507
2023-11-18T08:23:37.661Z,2481
2023-11-18T08:24:45.800Z,2483
2023-11-18T08:25:54.962Z,2582
2023-11-18T08:27:04.120Z,2580
2023-11-18T08:28:13.283Z,2584
2023-11-18T08:29:22.461Z,2589
2023-11-18T08:30:31.660Z,2581
2023-11-18T08:31:40.854Z,2675
2023-11-18T08:32:50.105Z,2714
2023-11-18T08:33:59.205Z,2721
2023-11-18T08:35:08.337Z,2771
2023-11-18T08:36:17.524Z,2773
2023-11-18T08:37:26.672Z,2746
2023-11-18T08:38:35.846Z,2734
2023-11-18T08:39:44.042Z,2724
2023-11-18T08:40:53.236Z,2696
2023-11-18T08:42:02.389Z,2617
2023-11-18T08:43:11.589Z,2606
2023-11-18T08:44:20.732Z,2606
2023-11-18T08:45:29.892Z,2605
2023-11-18T08:47:47.288Z,2458
2023-11-18T08:48:55.468Z,2478
2023-11-18T08:50:03.676Z,2498
2023-11-18T08:51:12.831Z,2542
2023-11-18T08:52:22.005Z,2560
2023-11-18T08:53:31.177Z,2570
2023-11-18T08:54:40.431Z,2581
2023-11-18T08:55:49.612Z,2644
2023-11-18T08:56:58.712Z,2659
2023-11-18T08:58:07.882Z,2647
2023-11-18T08:59:17.241Z,2626
2023-11-18T09:00:26.241Z,2563
2023-11-18T09:01:35.501Z,2521
2023-11-18T09:02:44.559Z,2490
2023-11-18T09:03:53.743Z,2517
2023-11-18T09:05:02.000Z,2564
2023-11-18T09:06:11.206Z,2608
2023-11-18T09:07:20.262Z,2631
2023-11-18T09:08:29.450Z,2636
2023-11-18T09:09:38.610Z,2623
2023-11-18T09:10:47.790Z,2555
2023-11-18T09:11:55.974Z,2498
2023-11-18T09:13:04.175Z,2442
2023-11-18T09:14:12.392Z,2374
2023-11-18T09:15:21.535Z,2286
2023-11-18T09:16:30.725Z,2262
2023-11-18T09:17:39.881Z,2144
2023-11-18T09:18:49.058Z,2089
2023-11-18T09:19:58.229Z,2092
2023-11-18T09:21:07.399Z,2119
2023-11-18T09:22:16.579Z,2175
2023-11-18T09:23:25.748Z,2228
2023-11-18T09:24:34.908Z,2268
2023-11-18T09:25:44.116Z,2273
2023-11-18T09:26:53.263Z,2237
2023-11-18T09:28:02.452Z,2261
2023-11-18T09:29:10.639Z,2291
2023-11-18T09:30:19.823Z,2295
2023-11-18T09:31:28.981Z,2278
2023-11-18T09:32:38.154Z,2277
2023-11-18T09:33:47.330Z,2266
2023-11-18T09:34:56.500Z,2273
2023-11-18T09:36:05.665Z,2402
2023-11-18T09:37:14.838Z,2572
2023-11-18T09:38:24.046Z,2658
2023-11-18T09:39:33.192Z,2831
2023-11-18T09:40:42.372Z,2944
2023-11-18T09:41:51.553Z,3017
2023-11-18T09:43:00.775Z,3134
2023-11-18T09:44:09.024Z,3222
2023-11-18T09:45:18.070Z,3238
2023-11-18T09:46:27.320Z,3151
2023-11-18T09:47:36.420Z,3070
2023-11-18T09:48:45.620Z,3037
2023-11-18T09:49:54.755Z,3010
2023-11-18T09:51:03.934Z,2998
2023-11-18T09:52:12.139Z,3008
2023-11-18T09:53:20.320Z,2945
2023-11-18T09:54:29.516Z,2904
2023-11-18T09:55:38.681Z,2849
2023-11-18T09:56:47.841Z,2836
2023-11-18T09:57:57.017Z,2934
2023-11-18T09:59:06.233Z,3152
2023-11-18T10:00:15.358Z,3420
2023-11-18T10:01:24.529Z,3692
2023-11-18T10:02:33.704Z,3816
2023-11-18T10:03:42.995Z,3894
2023-11-18T10:04:52.049Z,3982
2023-11-18T10:06:01.216Z,3969
2023-11-18T10:07:10.404Z,3985
2023-11-18T10:08:18.580Z,4061
2023-11-18T10:09:27.760Z,4134
2023-11-18T10:10:36.919Z,4233
2023-11-18T10:11:46.111Z,4324
2023-11-18T10:12:55.279Z,4358
2023-11-18T10:14:04.465Z,4362
2023-11-18T10:15:12.649Z,4385
2023-11-18T10:16:20.861Z,4322
2023-11-18T10:17:29.085Z,4186
2023-11-18T10:18:38.202Z,4090
2023-11-18T10:19:47.374Z,3909
2023-11-18T10:20:56.570Z,3712
2023-11-18T10:22:05.718Z,3557
2023-11-18T10:23:14.895Z,3385
2023-11-18T10:24:24.063Z,3140
2023-11-18T10:25:33.239Z,2893
2023-11-18T10:26:42.408Z,2694
2023-11-18T10:27:51.592Z,2546
2023-11-18T10:29:00.763Z,2321
2023-11-18T10:30:09.943Z,2155
2023-11-18T10:31:19.094Z,2022
2023-11-18T10:32:27.289Z,1962
2023-11-18T10:33:36.469Z,1885
2023-11-18T10:34:45.631Z,1774
2023-11-18T10:35:54.817Z,1726
2023-11-18T10:37:03.993Z,1733
2023-11-18T10:38:13.145Z,1730
2023-11-18T10:39:21.365Z,1684
2023-11-18T10:40:29.561Z,1644
2023-11-18T10:41:38.853Z,1703
2023-11-18T10:42:47.892Z,1745
2023-11-18T10:43:57.065Z,1735
2023-11-18T10:45:06.346Z,1770
2023-11-18T10:46:15.405Z,1925
2023-11-18T10:47:24.582Z,2129
2023-11-18T10:48:33.758Z,2290
2023-11-18T10:49:42.993Z,2289
2023-11-18T10:50:52.117Z,2247
2023-11-18T10:52:01.275Z,2203
2023-11-18T10:53:10.453Z,2074
2023-11-18T10:54:19.626Z,1844
2023-11-18T10:55:27.804Z,1653
2023-11-18T10:56:36.995Z,1522
2023-11-18T10:57:46.161Z,1376
2023-11-18T10:58:55.338Z,1352
2023-11-18T11:00:04.503Z,1396
2023-11-18T11:01:13.669Z,1492
2023-11-18T11:02:22.858Z,1602
2023-11-18T11:03:32.089Z,1786
2023-11-18T11:04:41.195Z,1943
2023-11-18T11:05:50.381Z,2070
2023-11-18T11:06:59.543Z,2196
2023-11-18T11:08:08.733Z,2253
2023-11-18T11:09:17.912Z,2208
2023-11-18T11:10:26.088Z,2170
2023-11-18T11:11:35.242Z,2127
2023-11-18T11:12:44.417Z,2161
2023-11-18T11:13:53.598Z,2219
2023-11-18T11:15:02.804Z,2274
2023-11-18T11:16:11.992Z,2284
2023-11-18T11:17:21.124Z,2295
2023-11-18T11:18:30.291Z,2218
2023-11-18T11:19:39.461Z,2153
2023-11-18T11:20:48.636Z,2121
2023-11-18T11:21:57.831Z,2163
2023-11-18T11:23:07.002Z,2184
2023-11-18T11:24:16.159Z,2209
2023-11-18T11:25:24.341Z,2268
2023-11-18T11:26:33.514Z,2393
2023-11-18T11:27:42.686Z,2381
2023-11-18T11:28:51.851Z,2341
2023-11-18T11:30:01.034Z,2309
2023-11-18T11:31:10.209Z,2345
2023-11-18T11:32:19.389Z,2409
2023-11-18T11:33:28.551Z,2409
2023-11-18T11:34:37.734Z,2298
2023-11-18T11:35:46.903Z,2182
2023-11-18T11:36:56.086Z,2135
2023-11-18T11:38:05.268Z,2089
2023-11-18T11:39:14.449Z,2034
2023-11-18T11:40:22.617Z,1941
2023-11-18T11:41:31.776Z,1867
2023-11-18T11:42:41.120Z,1804
2023-11-18T11:43:50.265Z,1776
2023-11-18T11:44:59.381Z,1762
2023-11-18T11:46:08.568Z,1725
2023-11-18T11:47:17.641Z,1710
2023-11-18T11:48:26.824Z,1700
2023-11-18T11:49:35.991Z,1691
2023-11-18T11:50:45.154Z,1646
2023-11-18T11:51:54.340Z,1594
2023-11-18T11:53:03.516Z,1600
2023-11-18T11:54:12.681Z,1602
2023-11-18T11:55:20.867Z,1626
2023-11-18T11:56:30.054Z,1598
2023-11-18T11:57:39.230Z,1585
2023-11-18T11:58:48.392Z,1588
2023-11-18T11:59:57.571Z,1579
2023-11-18T12:01:06.739Z,1594
2023-11-18T12:02:15.925Z,1549
2023-11-18T12:03:25.074Z,1547
2023-11-18T12:04:34.258Z,1519
2023-11-18T12:05:43.421Z,1506
2023-11-18T12:06:52.603Z,1486
2023-11-18T12:08:01.775Z,1388
2023-11-18T12:09:10.945Z,1374
2023-11-18T12:10:19.136Z,1322
2023-11-18T12:11:28.323Z,1271
2023-11-18T12:12:37.482Z,1229
2023-11-18T12:13:45.685Z,1183
2023-11-18T12:14:54.853Z,1186
2023-11-18T12:16:04.022Z,1150
2023-11-18T12:17:13.250Z,1131
2023-11-18T12:18:22.368Z,1118
2023-11-18T12:19:31.551Z,1104
2023-11-18T12:20:40.717Z,1110
2023-11-18T12:21:49.966Z,1073
2023-11-18T12:22:59.046Z,1067
2023-11-18T12:24:08.243Z,1053
2023-11-18T12:25:17.411Z,1037
2023-11-18T12:26:26.612Z,1023
2023-11-18T12:27:35.782Z,1005
2023-11-18T12:28:44.022Z,997
2023-11-18T12:29:52.324Z,976
2023-11-18T12:31:00.332Z,918
2023-11-18T12:32:09.499Z,891
2023-11-18T12:33:18.682Z,877
2023-11-18T12:34:27.884Z,864
2023-11-18T12:35:37.022Z,864
2023-11-18T12:36:46.193Z,855
2023-11-18T12:37:55.377Z,867
2023-11-18T12:39:04.530Z,858
2023-11-18T12:40:13.712Z,844
2023-11-18T12:41:22.878Z,828
2023-11-18T12:42:32.064Z,853
2023-11-18T12:43:41.225Z,865
2023-11-18T12:44:50.529Z,859
2023-11-18T12:45:58.602Z,856
2023-11-18T12:47:07.763Z,836
2023-11-18T12:48:16.950Z,786
2023-11-18T12:49:26.191Z,767
2023-11-18T12:50:35.283Z,752
2023-11-18T12:51:44.460Z,714
2023-11-18T12:52:53.628Z,698
2023-11-18T12:54:02.805Z,653
2023-11-18T12:55:11.965Z,597
2023-11-18T12:56:21.152Z,584
2023-11-18T12:57:30.399Z,590
2023-11-18T12:58:39.517Z,615
2023-11-18T12:59:48.760Z,609
2023-11-18T13:00:56.859Z,613
2023-11-18T13:02:06.092Z,602
2023-11-18T13:03:15.198Z,579
2023-11-18T13:04:24.393Z,558
2023-11-18T13:05:33.568Z,514
2023-11-18T13:06:42.718Z,460
2023-11-18T13:07:51.896Z,489
2023-11-18T13:09:01.096Z,505
2023-11-18T13:11:19.422Z,577
2023-11-18T13:12:28.586Z,604
2023-11-18T13:13:37.780Z,632
2023-11-18T13:14:46.972Z,667
2023-11-18T13:15:55.139Z,684
2023-11-18T13:17:04.307Z,673
2023-11-18T13:18:13.464Z,679
2023-11-18T13:19:22.658Z,667
2023-11-18T13:20:31.840Z,637
2023-11-18T13:21:41.065Z,587
2023-11-18T13:22:50.346Z,534
2023-11-18T13:23:59.341Z,515
2023-11-18T13:25:08.584Z,504
2023-11-18T13:26:17.690Z,496
2023-11-18T13:27:26.885Z,447
2023-11-18T13:28:36.050Z,428
2023-11-18T13:29:45.309Z,373
2023-11-18T13:30:53.486Z,375
2023-11-18T13:32:02.570Z,390
2023-11-18T13:33:11.767Z,386
2023-11-18T13:34:20.939Z,437
2023-11-18T13:35:30.098Z,468
2023-11-18T13:36:39.257Z,507
2023-11-18T13:37:48.533Z,562
2023-11-18T13:38:57.594Z,588
2023-11-18T13:40:06.776Z,623
2023-11-18T13:41:15.959Z,687
2023-11-18T13:42:25.130Z,720
2023-11-18T13:43:34.311Z,757
2023-11-18T13:44:43.463Z,800
2023-11-18T13:45:51.680Z,809
2023-11-18T13:47:00.848Z,799
2023-11-18T13:48:09.997Z,826
2023-11-18T13:50:28.362Z,875
2023-11-18T13:51:37.531Z,841
2023-11-18T13:52:46.763Z,821
2023-11-18T13:53:55.867Z,796
2023-11-18T13:55:05.058Z,759
2023-11-18T13:56:14.224Z,714
2023-11-18T13:57:23.409Z,703
2023-11-18T13:58:32.575Z,684
2023-11-18T13:59:41.731Z,672
2023-11-18T14:00:49.914Z,705
2023-11-18T14:01:59.099Z,696
2023-11-18T14:03:08.349Z,645
2023-11-18T14:04:17.453Z,572
2023-11-18T14:05:26.619Z,523
2023-11-18T14:06:35.811Z,486
2023-11-18T14:07:44.976Z,484
2023-11-18T14:08:54.121Z,504
2023-11-18T14:10:03.309Z,532
2023-11-18T14:11:12.661Z,601
2023-11-18T14:12:21.779Z,624
2023-11-18T14:13:30.823Z,608
2023-11-18T14:14:39.992Z,578
2023-11-18T14:16:57.362Z,462
2023-11-18T14:18:06.532Z,454
2023-11-18T14:19:15.701Z,441
2023-11-18T14:20:24.871Z,442
2023-11-18T14:21:34.061Z,451
2023-11-18T14:22:43.238Z,452
2023-11-18T14:23:52.558Z,465
2023-11-18T14:25:01.561Z,482
2023-11-18T14:26:10.764Z,469
2023-11-18T14:27:19.904Z,481
2023-11-18T14:28:29.094Z,483
2023-11-18T14:30:47.522Z,433
2023-11-18T14:31:55.742Z,427
2023-11-18T14:33:04.804Z,400
2023-11-18T14:34:13.961Z,390
2023-11-18T14:35:23.174Z,368
2023-11-18T14:36:32.352Z,363
2023-11-18T14:37:41.498Z,342
2023-11-18T14:38:50.677Z,355
2023-11-18T14:39:59.827Z,364
2023-11-18T14:42:18.171Z,348
2023-11-18T14:43:27.354Z,333
2023-11-18T14:44:36.537Z,357
2023-11-18T14:45:45.742Z,399
2023-11-18T14:46:54.005Z,436
2023-11-18T14:48:03.079Z,420
2023-11-18T14:49:12.368Z,391
2023-11-18T14:50:21.444Z,336
2023-11-18T14:51:30.587Z,310
2023-11-18T14:52:39.755Z,283
2023-11-18T14:53:48.944Z,286
2023-11-18T14:54:58.096Z,259
2023-11-18T14:56:07.311Z,258
2023-11-18T14:57:16.444Z,240
2023-11-18T14:58:25.614Z,236
2023-11-18T14:59:34.876Z,231
2023-11-18T15:00:43.994Z,235
2023-11-18T15:01:52.144Z,239
2023-11-18T15:03:01.430Z,220
2023-11-18T15:04:10.501Z,223
2023-11-18T15:05:19.679Z,188
2023-11-18T15:06:28.894Z,164
2023-11-18T15:08:47.401Z,167
2023-11-18T15:09:56.562Z,154
2023-11-18T15:11:05.562Z,149
2023-11-18T15:12:14.872Z,140
2023-11-18T15:13:24.016Z,144
2023-11-18T15:14:33.224Z,139
2023-11-18T15:15:42.239Z,130
2023-11-18T15:16:50.487Z,143
2023-11-18T15:17:58.609Z,151
2023-11-18T15:19:06.805Z,158
2023-11-18T15:20:15.981Z,149
2023-11-18T15:21:25.280Z,127
2023-11-18T15:22:34.339Z,113
2023-11-18T15:23:43.506Z,96
2023-11-18T15:24:52.688Z,86
2023-11-18T15:26:01.918Z,66
2023-11-18T15:27:11.058Z,63
2023-11-18T15:28:20.213Z,58
2023-11-18T15:29:29.356Z,54
2023-11-18T15:30:38.538Z,52
2023-11-18T15:31:47.727Z,52
2023-11-18T15:32:56.886Z,48
2023-11-18T15:34:05.218Z,45
2023-11-18T15:35:14.340Z,35
2023-11-18T15:36:23.477Z,39
2023-11-18T15:37:32.587Z,26
2023-11-18T15:38:41.791Z,26
2023-11-18T15:39:50.947Z,26
2023-11-18T15:41:00.128Z,20
2023-11-18T15:42:09.296Z,24
2023-11-18T15:43:18.562Z,20
2023-11-18T15:44:28.031Z,20
2023-11-18T15:45:37.144Z,15
2023-11-18T15:46:45.962Z,15
2023-11-18T15:47:55.122Z,9
2023-11-18T15:49:03.545Z,12
2023-11-18T15:50:12.672Z,9
2023-11-18T15:51:20.907Z,4
2023-11-18T15:52:28.894Z,3
2023-11-18T15:53:38.225Z,3
2023-11-18T15:54:47.354Z,3
2023-11-18T15:55:55.762Z,3
2023-11-18T15:57:04.712Z,3
2023-11-18T15:58:13.985Z,3
2023-11-18T15:59:22.973Z,3
2023-11-18T16:00:32.273Z,0
2023-11-18T16:01:41.338Z,0
2023-11-18T16:02:50.480Z,0
2023-11-18T16:03:59.651Z,0
2023-11-18T16:05:07.898Z,0
2023-11-18T16:06:17.025Z,0
2023-11-18T16:07:26.372Z,0
2023-11-18T16:09:44.538Z,0
2023-11-18T16:10:53.999Z,0
2023-11-18T16:12:02.933Z,0
2023-11-18T16:13:12.143Z,0
2023-11-18T16:14:21.229Z,0
2023-11-18T16:15:30.400Z,0
2023-11-18T16:16:39.604Z,0
2023-11-18T16:17:48.771Z,0
2023-11-18T16:18:57.906Z,0
2023-11-18T16:20:06.120Z,0
2023-11-18T16:21:15.485Z,0
2023-11-18T16:22:24.461Z,0
2023-11-18T16:23:33.623Z,0
2023-11-18T16:24:42.779Z,0
2023-11-18T16:25:52.090Z,0
2023-11-18T16:27:01.147Z,0
2023-11-18T16:28:10.298Z,0
2023-11-18T16:29:19.527Z,0
2023-11-18T16:30:28.729Z,0
2023-11-18T16:31:37.827Z,0
2023-11-18T16:32:47.020Z,0
2023-11-18T16:33:56.194Z,0
2023-11-18T16:35:04.486Z,0
2023-11-18T16:36:13.593Z,0
2023-11-18T16:37:22.755Z,0
2023-11-18T16:38:32.004Z,0
2023-11-18T16:39:41.071Z,0
2023-11-18T16:40:50.399Z,0
2023-11-18T16:41:59.404Z,0
2023-11-18T16:43:08.618Z,0
2023-11-18T16:44:17.743Z,0
2023-11-18T16:45:27.022Z,0
2023-11-18T16:46:36.092Z,0
2023-11-18T16:47:45.259Z,0
2023-11-18T16:48:54.432Z,0
2023-11-18T16:50:02.770Z,0
2023-11-18T16:51:11.805Z,0
2023-11-18T16:52:20.964Z,0
2023-11-18T16:53:30.189Z,0
2023-11-18T16:54:39.335Z,0